Terminal Aerodrome Forecast
Issued by NWS Sterling, VA

Home | Current Version | Previous Version | Text Only | Print | Product List | Glossary On
Versions: 1 2 3 4 5 6 7 8 9 10 11 12 13
000
FTUS41 KLWX 281137
TAFCHO
TAF
KCHO 281137Z 2812/0112 05006KT P6SM SCT150
     FM281700 13004KT P6SM SCT030 BKN150
     FM010200 VRB04KT P6SM BKN025
     FM010800 VRB04KT 3SM BR SCT015 BKN025=

USA.gov is the U.S. government's official web portal to all federal, state and local government web resources and services.